Time;durP1;ratioP1;P1;durP2;ratioP2;P2;SDS_P1;SDS_P2;PMS_P1;PMS_P2;Temp;Humidity;BMP_temperature;BMP_pressure;BME280_temperature;BME280_humidity;BME280_pressure;Samples;Min_cycle;Max_cycle;Signal;HPM_P1;HPM_P2
2024/01/20 00:01:27;;;;;;;;;;;2.10;99.90;;;;;;4986269;28;20257;-67
2024/01/20 00:03:53;;;;;;;;;;;2.10;99.90;;;;;;4980047;28;19940;-67
2024/01/20 00:06:18;;;;;;;;;;;2.10;99.90;;;;;;4968137;28;19914;-67
2024/01/20 00:08:44;;;;;;;;;;;2.10;99.90;;;;;;4968777;28;19914;-67
2024/01/20 00:11:15;;;;;;;;;;;2.10;99.90;;;;;;4964515;28;20438;-67
2024/01/20 00:13:40;;;;;;;;;;;2.10;99.90;;;;;;4963954;28;19922;-67
2024/01/20 00:16:06;;;;;;;;;;;2.10;99.90;;;;;;4961809;28;19920;-67
2024/01/20 00:18:31;;;;;;;;;;;2.10;99.90;;;;;;4967164;28;19921;-67
2024/01/20 00:20:57;;;;;;;;;;;2.10;99.90;;;;;;4989671;28;19945;-67
2024/01/20 00:23:22;;;;;;;;;;;2.10;99.90;;;;;;4976053;28;19945;-67
2024/01/20 00:25:48;;;;;;;;;;;2.10;99.90;;;;;;4991244;28;20004;-67
2024/01/20 00:28:13;;;;;;;;;;;2.10;99.90;;;;;;4989619;28;19925;-67
2024/01/20 00:30:39;;;;;;;;;;;2.10;99.90;;;;;;4986704;28;20021;-67
2024/01/20 00:33:08;;;;;;;;;;;2.10;99.90;;;;;;4987552;28;19964;-67
2024/01/20 00:35:34;;;;;;;;;;;2.10;99.90;;;;;;4966985;28;19918;-67
2024/01/20 00:37:59;;;;;;;;;;;2.10;99.90;;;;;;5005056;28;19925;-67
2024/01/20 00:40:25;;;;;;;;;;;2.20;99.90;;;;;;4979422;28;19914;-67
2024/01/20 00:42:53;;;;;;;;;;;2.00;99.90;;;;;;4969247;28;19914;-67
2024/01/20 00:45:18;;;;;;;;;;;2.00;99.90;;;;;;4986442;23;19957;-67
2024/01/20 00:47:44;;;;;;;;;;;2.10;99.90;;;;;;4950900;28;20515;-67
2024/01/20 00:50:09;;;;;;;;;;;2.00;99.90;;;;;;4946480;28;19933;-67
2024/01/20 00:52:35;;;;;;;;;;;2.00;99.90;;;;;;4936480;28;19915;-67
2024/01/20 00:55:00;;;;;;;;;;;2.00;99.90;;;;;;4929889;28;19919;-67
2024/01/20 00:57:26;;;;;;;;;;;2.10;99.90;;;;;;4933753;28;19926;-67
2024/01/20 00:59:53;;;;;;;;;;;2.10;99.90;;;;;;4930442;29;19917;-67
2024/01/20 01:02:21;;;;;;;;;;;2.10;99.90;;;;;;4923917;28;19923;-67
2024/01/20 01:04:47;;;;;;;;;;;2.10;99.90;;;;;;4933056;28;20305;-67
2024/01/20 01:07:12;;;;;;;;;;;2.10;99.90;;;;;;4938350;28;19921;-67
2024/01/20 01:09:38;;;;;;;;;;;2.10;99.90;;;;;;4950056;28;19927;-67
2024/01/20 01:12:06;;;;;;;;;;;2.10;99.90;;;;;;4950119;28;20454;-67
2024/01/20 01:14:31;;;;;;;;;;;2.10;99.90;;;;;;4946342;28;20386;-67
2024/01/20 01:16:57;;;;;;;;;;;2.10;99.90;;;;;;4946518;28;20304;-67
2024/01/20 01:19:23;;;;;;;;;;;2.10;99.90;;;;;;4954861;28;19925;-67
2024/01/20 01:21:51;;;;;;;;;;;2.10;99.90;;;;;;4962763;28;20266;-67
2024/01/20 01:24:16;;;;;;;;;;;2.10;99.90;;;;;;4947250;28;20509;-68
2024/01/20 01:26:44;;;;;;;;;;;2.10;99.90;;;;;;4950756;28;19957;-67
2024/01/20 01:29:09;;;;;;;;;;;2.10;99.90;;;;;;5061583;23;19926;-67
2024/01/20 01:31:35;;;;;;;;;;;2.10;99.90;;;;;;4983854;28;20389;-67
2024/01/20 01:34:03;;;;;;;;;;;2.10;99.90;;;;;;4984875;28;20009;-67
2024/01/20 01:36:28;;;;;;;;;;;2.10;99.90;;;;;;4986271;28;19914;-67
2024/01/20 01:38:53;;;;;;;;;;;2.10;99.90;;;;;;4986270;28;20403;-67
2024/01/20 01:41:19;;;;;;;;;;;2.20;99.90;;;;;;4983806;28;19965;-67
2024/01/20 01:43:44;;;;;;;;;;;2.10;99.90;;;;;;4981883;28;19933;-67
2024/01/20 01:46:13;;;;;;;;;;;2.10;99.90;;;;;;4985986;28;19968;-67
2024/01/20 01:48:39;;;;;;;;;;;2.10;99.90;;;;;;4986408;28;20307;-67
2024/01/20 01:51:07;;;;;;;;;;;2.10;99.90;;;;;;4999769;28;20049;-67
2024/01/20 01:53:32;;;;;;;;;;;2.10;99.90;;;;;;4989706;28;19922;-67
2024/01/20 01:55:59;;;;;;;;;;;2.10;99.90;;;;;;4992145;28;20376;-67
2024/01/20 01:58:25;;;;;;;;;;;2.10;99.90;;;;;;4987844;28;20480;-67
2024/01/20 02:00:51;;;;;;;;;;;2.10;99.90;;;;;;4991118;28;20164;-67
2024/01/20 02:03:16;;;;;;;;;;;2.10;99.90;;;;;;4991520;28;20368;-67
2024/01/20 02:05:42;;;;;;;;;;;2.10;99.90;;;;;;4988232;28;19905;-67
2024/01/20 02:08:10;;;;;;;;;;;2.10;99.90;;;;;;4989534;28;20284;-67
2024/01/20 02:10:36;;;;;;;;;;;2.10;99.90;;;;;;4988488;28;19964;-67
2024/01/20 02:13:04;;;;;;;;;;;2.10;99.90;;;;;;4988187;28;19918;-67
2024/01/20 02:15:30;;;;;;;;;;;2.10;99.90;;;;;;4987598;28;19918;-67
2024/01/20 02:17:56;;;;;;;;;;;2.10;99.90;;;;;;4988978;28;19957;-67
2024/01/20 02:20:22;;;;;;;;;;;2.20;99.90;;;;;;4987856;28;20467;-67
2024/01/20 02:22:50;;;;;;;;;;;2.10;99.90;;;;;;4987301;28;20270;-67
2024/01/20 02:25:15;;;;;;;;;;;2.20;99.90;;;;;;4988514;28;19914;-67
2024/01/20 02:27:43;;;;;;;;;;;2.20;99.90;;;;;;4987348;28;19918;-67
2024/01/20 02:30:09;;;;;;;;;;;2.20;99.90;;;;;;4987987;28;19918;-67
2024/01/20 02:32:34;;;;;;;;;;;2.20;99.90;;;;;;4989517;28;19917;-67
2024/01/20 02:35:00;;;;;;;;;;;2.20;99.90;;;;;;4986499;28;19945;-67
2024/01/20 02:37:25;;;;;;;;;;;2.20;99.90;;;;;;4987734;28;19921;-67
2024/01/20 02:39:51;;;;;;;;;;;2.20;99.90;;;;;;4988508;28;20308;-67
2024/01/20 02:42:19;;;;;;;;;;;2.20;99.90;;;;;;4989047;28;19909;-67
2024/01/20 02:44:44;;;;;;;;;;;2.20;99.90;;;;;;4991525;28;19913;-67
2024/01/20 02:47:10;;;;;;;;;;;2.20;99.90;;;;;;4986501;28;20100;-67
2024/01/20 02:49:35;;;;;;;;;;;2.20;99.90;;;;;;4988390;28;20320;-67
2024/01/20 02:52:00;;;;;;;;;;;2.20;99.90;;;;;;4986146;28;20017;-67
2024/01/20 02:54:28;;;;;;;;;;;2.20;99.90;;;;;;4987118;28;20404;-67
2024/01/20 02:56:56;;;;;;;;;;;2.20;99.90;;;;;;4989277;28;19909;-67
2024/01/20 02:59:24;;;;;;;;;;;2.20;99.90;;;;;;4984752;28;20045;-67
2024/01/20 03:01:49;;;;;;;;;;;2.20;99.90;;;;;;4984457;28;19939;-67
2024/01/20 03:04:15;;;;;;;;;;;2.20;99.90;;;;;;4985324;28;19918;-67
2024/01/20 03:06:44;;;;;;;;;;;2.20;99.90;;;;;;4979105;28;20155;-67
2024/01/20 03:09:14;;;;;;;;;;;2.20;99.90;;;;;;4979864;28;20278;-67
2024/01/20 03:11:44;;;;;;;;;;;2.20;99.90;;;;;;4985700;28;19917;-67
2024/01/20 03:14:10;;;;;;;;;;;2.20;99.90;;;;;;4979678;28;20012;-67
2024/01/20 03:16:38;;;;;;;;;;;2.20;99.90;;;;;;4984356;28;20356;-67
2024/01/20 03:19:04;;;;;;;;;;;2.20;99.90;;;;;;4983196;28;19918;-67
2024/01/20 03:21:35;;;;;;;;;;;2.20;99.90;;;;;;4980749;28;20396;-67
2024/01/20 03:24:00;;;;;;;;;;;2.10;99.90;;;;;;4980964;28;20160;-67
2024/01/20 03:26:26;;;;;;;;;;;2.10;99.90;;;;;;4978061;28;19917;-67
2024/01/20 03:28:51;;;;;;;;;;;2.10;99.90;;;;;;4979255;28;19918;-67
2024/01/20 03:31:17;;;;;;;;;;;2.10;99.90;;;;;;4990629;28;20376;-67
2024/01/20 03:33:45;;;;;;;;;;;2.10;99.90;;;;;;4983314;28;19963;-67
2024/01/20 03:36:11;;;;;;;;;;;2.10;99.90;;;;;;4975008;28;19929;-67
2024/01/20 03:38:39;;;;;;;;;;;2.10;99.90;;;;;;4985658;28;19916;-67
2024/01/20 03:41:04;;;;;;;;;;;2.10;99.90;;;;;;4982023;28;20440;-67
2024/01/20 03:43:32;;;;;;;;;;;2.10;99.90;;;;;;4981030;28;20004;-67
2024/01/20 03:46:00;;;;;;;;;;;2.00;99.90;;;;;;4980999;28;20223;-67
2024/01/20 03:48:26;;;;;;;;;;;2.00;99.90;;;;;;4983840;28;20250;-67
2024/01/20 03:50:51;;;;;;;;;;;2.00;99.90;;;;;;4984220;28;19914;-67
2024/01/20 03:53:19;;;;;;;;;;;2.00;99.90;;;;;;4977030;28;19937;-67
2024/01/20 03:55:44;;;;;;;;;;;2.00;99.90;;;;;;4994607;28;19945;-67
2024/01/20 03:58:12;;;;;;;;;;;2.00;99.90;;;;;;4981139;28;20442;-67
2024/01/20 04:00:38;;;;;;;;;;;2.00;99.90;;;;;;4982100;28;19932;-67
2024/01/20 04:03:05;;;;;;;;;;;2.00;99.90;;;;;;4986677;28;20137;-67
2024/01/20 04:05:33;;;;;;;;;;;2.00;99.90;;;;;;4977752;28;20365;-67
2024/01/20 04:07:59;;;;;;;;;;;2.00;99.90;;;;;;4984211;28;19921;-67
2024/01/20 04:10:27;;;;;;;;;;;2.00;99.90;;;;;;4986435;28;19917;-67
2024/01/20 04:12:53;;;;;;;;;;;2.00;99.90;;;;;;4984039;28;20010;-67
2024/01/20 04:15:18;;;;;;;;;;;2.00;99.90;;;;;;4977811;28;20380;-67
2024/01/20 04:17:44;;;;;;;;;;;2.00;99.90;;;;;;4981511;28;19913;-67
2024/01/20 04:20:09;;;;;;;;;;;1.90;99.90;;;;;;4984604;28;20460;-67
2024/01/20 04:22:35;;;;;;;;;;;2.00;99.90;;;;;;4986092;28;20284;-67
2024/01/20 04:25:00;;;;;;;;;;;2.00;99.90;;;;;;4985855;28;20005;-68
2024/01/20 04:27:28;;;;;;;;;;;2.00;99.90;;;;;;4985442;28;20388;-67
2024/01/20 04:29:54;;;;;;;;;;;2.00;99.90;;;;;;4987466;28;20368;-67
2024/01/20 04:32:19;;;;;;;;;;;2.00;99.90;;;;;;4983845;28;20214;-67
2024/01/20 04:34:47;;;;;;;;;;;1.90;99.90;;;;;;4984308;28;19957;-67
2024/01/20 04:37:17;;;;;;;;;;;2.00;99.90;;;;;;4988979;28;19925;-67
2024/01/20 04:39:43;;;;;;;;;;;2.00;99.90;;;;;;4996495;28;20391;-67
2024/01/20 04:42:08;;;;;;;;;;;2.00;99.90;;;;;;4985749;28;19910;-67
2024/01/20 04:44:34;;;;;;;;;;;2.00;99.90;;;;;;4985856;28;20279;-67
2024/01/20 04:47:01;;;;;;;;;;;1.90;99.90;;;;;;4985257;28;19918;-67
2024/01/20 04:49:27;;;;;;;;;;;2.00;99.90;;;;;;4985458;28;20004;-67
2024/01/20 04:51:57;;;;;;;;;;;2.00;99.90;;;;;;4986850;28;20008;-67
2024/01/20 04:54:22;;;;;;;;;;;2.00;99.90;;;;;;4987018;28;19943;-67
2024/01/20 04:56:50;;;;;;;;;;;2.00;99.90;;;;;;4987026;28;20165;-67
2024/01/20 04:59:18;;;;;;;;;;;1.90;99.90;;;;;;4987366;28;19918;-67
2024/01/20 05:01:45;;;;;;;;;;;1.90;99.90;;;;;;4986029;28;19918;-67
2024/01/20 05:04:13;;;;;;;;;;;1.90;99.90;;;;;;4988168;28;20025;-67
2024/01/20 05:06:38;;;;;;;;;;;1.90;99.90;;;;;;4986548;28;19921;-67
2024/01/20 05:09:04;;;;;;;;;;;1.90;99.90;;;;;;4987846;28;19918;-67
2024/01/20 05:11:30;;;;;;;;;;;1.90;99.90;;;;;;4989999;28;20404;-67
2024/01/20 05:13:55;;;;;;;;;;;1.90;99.90;;;;;;4983981;28;19928;-67
2024/01/20 05:16:21;;;;;;;;;;;1.90;99.90;;;;;;4983823;28;19917;-67
2024/01/20 05:18:48;;;;;;;;;;;1.90;99.90;;;;;;4983246;28;20012;-67
2024/01/20 05:21:14;;;;;;;;;;;1.90;99.90;;;;;;4983494;28;20440;-67
2024/01/20 05:23:40;;;;;;;;;;;1.80;99.90;;;;;;4982486;28;19949;-67
2024/01/20 05:26:05;;;;;;;;;;;1.80;99.90;;;;;;4991964;28;19925;-67
2024/01/20 05:28:31;;;;;;;;;;;1.80;99.90;;;;;;4986599;28;19922;-67
2024/01/20 05:30:56;;;;;;;;;;;1.80;99.90;;;;;;4983292;28;19921;-67
2024/01/20 05:33:27;;;;;;;;;;;1.80;99.90;;;;;;4989635;28;19921;-67
2024/01/20 05:35:52;;;;;;;;;;;1.70;99.90;;;;;;4991619;28;19910;-67
2024/01/20 05:38:17;;;;;;;;;;;1.70;99.90;;;;;;4999945;28;19922;-67
2024/01/20 05:40:43;;;;;;;;;;;1.70;99.90;;;;;;4984986;28;19957;-67
2024/01/20 05:43:11;;;;;;;;;;;1.70;99.90;;;;;;4982201;28;19962;-67
2024/01/20 05:45:36;;;;;;;;;;;1.60;99.90;;;;;;4982012;28;20456;-67
2024/01/20 05:48:04;;;;;;;;;;;1.60;99.90;;;;;;4986459;28;20008;-67
2024/01/20 05:50:30;;;;;;;;;;;1.60;99.90;;;;;;4984711;28;20235;-67
2024/01/20 05:52:55;;;;;;;;;;;1.60;99.90;;;;;;4988750;28;19968;-67
2024/01/20 05:55:24;;;;;;;;;;;1.60;99.90;;;;;;4988181;28;20236;-67
2024/01/20 05:57:49;;;;;;;;;;;1.60;99.90;;;;;;4987796;28;19968;-67
2024/01/20 06:00:16;;;;;;;;;;;1.60;99.90;;;;;;4988656;28;20010;-67
2024/01/20 06:02:44;;;;;;;;;;;1.60;99.90;;;;;;4984246;28;19979;-67
2024/01/20 06:05:12;;;;;;;;;;;1.60;99.90;;;;;;4979037;28;19918;-67
2024/01/20 06:07:38;;;;;;;;;;;1.60;99.90;;;;;;4987371;28;20000;-67
2024/01/20 06:10:04;;;;;;;;;;;1.60;99.90;;;;;;4984571;28;20000;-67
2024/01/20 06:12:31;;;;;;;;;;;1.60;99.90;;;;;;4985583;28;19925;-67
2024/01/20 06:14:57;;;;;;;;;;;1.60;99.90;;;;;;4987325;28;20588;-67
2024/01/20 06:17:24;;;;;;;;;;;1.60;99.90;;;;;;4989517;28;19913;-67
2024/01/20 06:19:52;;;;;;;;;;;1.60;99.90;;;;;;4984686;28;20207;-67
2024/01/20 06:22:23;;;;;;;;;;;1.60;99.90;;;;;;4989034;28;19913;-67
2024/01/20 06:24:51;;;;;;;;;;;1.60;99.90;;;;;;4991361;28;19945;-67
2024/01/20 06:27:16;;;;;;;;;;;1.60;99.90;;;;;;4999849;28;19943;-67
2024/01/20 06:29:42;;;;;;;;;;;1.60;99.90;;;;;;4988931;28;20348;-67
2024/01/20 06:32:07;;;;;;;;;;;1.60;99.90;;;;;;4990453;28;19920;-67
2024/01/20 06:34:33;;;;;;;;;;;1.50;99.90;;;;;;4981904;28;20072;-67
2024/01/20 06:36:58;;;;;;;;;;;1.50;99.90;;;;;;4984949;28;19913;-67
2024/01/20 06:39:24;;;;;;;;;;;1.50;99.90;;;;;;4990736;28;20000;-67
2024/01/20 06:41:50;;;;;;;;;;;1.50;99.90;;;;;;4987978;28;20261;-67
2024/01/20 06:44:18;;;;;;;;;;;1.50;99.90;;;;;;4988072;28;19914;-67
2024/01/20 06:46:43;;;;;;;;;;;1.50;99.90;;;;;;5015493;23;19928;-67
2024/01/20 06:49:09;;;;;;;;;;;1.50;99.90;;;;;;5027630;28;19917;-67
2024/01/20 06:51:37;;;;;;;;;;;1.50;99.90;;;;;;5026158;28;19994;-67
2024/01/20 06:54:02;;;;;;;;;;;1.50;99.90;;;;;;5026785;28;19916;-67
2024/01/20 06:56:30;;;;;;;;;;;1.50;99.90;;;;;;5025674;28;19913;-67
2024/01/20 06:58:56;;;;;;;;;;;1.50;99.90;;;;;;5016683;28;19917;-67
2024/01/20 07:01:22;;;;;;;;;;;1.50;99.90;;;;;;5016645;28;19913;-67
2024/01/20 07:03:50;;;;;;;;;;;1.50;99.90;;;;;;5016866;28;19924;-67
2024/01/20 07:06:15;;;;;;;;;;;1.50;99.90;;;;;;5003230;28;19909;-67
2024/01/20 07:08:42;;;;;;;;;;;1.50;99.90;;;;;;5005891;28;19972;-67
2024/01/20 07:11:09;;;;;;;;;;;1.50;99.90;;;;;;5003051;28;20728;-67
2024/01/20 07:13:37;;;;;;;;;;;1.50;99.90;;;;;;5018142;28;19975;-67
2024/01/20 07:16:21;;;;;;;;;;;1.50;99.90;;;;;;5019924;28;19932;-67
2024/01/20 07:18:46;;;;;;;;;;;1.50;99.90;;;;;;4999568;28;19918;-67
2024/01/20 07:21:12;;;;;;;;;;;1.50;99.90;;;;;;5007652;28;19924;-69
2024/01/20 07:23:37;;;;;;;;;;;1.50;99.90;;;;;;5003460;28;19912;-67
2024/01/20 07:26:03;;;;;;;;;;;1.50;99.90;;;;;;5003715;28;20284;-68
2024/01/20 07:28:30;;;;;;;;;;;1.50;99.90;;;;;;5007267;28;19941;-67
2024/01/20 07:30:56;;;;;;;;;;;1.50;99.90;;;;;;5006157;28;20494;-67
2024/01/20 07:33:24;;;;;;;;;;;1.50;99.90;;;;;;5006530;28;19992;-68
2024/01/20 07:35:49;;;;;;;;;;;1.50;99.90;;;;;;5002614;28;19960;-68
2024/01/20 07:38:16;;;;;;;;;;;1.50;99.90;;;;;;5001295;28;20386;-68
2024/01/20 07:40:41;;;;;;;;;;;1.50;99.90;;;;;;5004854;28;19913;-68
2024/01/20 07:43:11;;;;;;;;;;;1.50;99.90;;;;;;5007125;28;20374;-68
2024/01/20 07:45:39;;;;;;;;;;;1.50;99.90;;;;;;5001997;28;20005;-68
2024/01/20 07:48:04;;;;;;;;;;;1.50;99.90;;;;;;5003359;28;19917;-68
2024/01/20 07:50:32;;;;;;;;;;;1.50;99.90;;;;;;5023491;28;19921;-68
2024/01/20 07:53:00;;;;;;;;;;;1.50;99.90;;;;;;5024684;28;19979;-68
2024/01/20 07:55:26;;;;;;;;;;;1.50;99.90;;;;;;5025963;28;19920;-67
2024/01/20 07:57:51;;;;;;;;;;;1.50;99.90;;;;;;5025506;28;19967;-67
2024/01/20 08:00:17;;;;;;;;;;;1.50;99.90;;;;;;5023672;28;20200;-67
2024/01/20 08:02:42;;;;;;;;;;;1.60;99.90;;;;;;5023590;28;19909;-68
2024/01/20 08:05:08;;;;;;;;;;;1.60;99.90;;;;;;5025750;28;20473;-67
2024/01/20 08:07:35;;;;;;;;;;;1.50;99.90;;;;;;5008420;28;19925;-67
2024/01/20 08:10:06;;;;;;;;;;;1.60;99.90;;;;;;5004839;28;19948;-67
2024/01/20 08:12:34;;;;;;;;;;;1.60;99.90;;;;;;5005971;28;20339;-68
2024/01/20 08:14:59;;;;;;;;;;;1.60;99.90;;;;;;5003758;28;19924;-67
2024/01/20 08:17:27;;;;;;;;;;;1.70;99.90;;;;;;5004289;28;20293;-67
2024/01/20 08:19:52;;;;;;;;;;;1.60;99.90;;;;;;4999261;28;20340;-68
2024/01/20 08:22:19;;;;;;;;;;;1.70;99.90;;;;;;5002405;28;19992;-68
2024/01/20 08:24:45;;;;;;;;;;;1.70;99.90;;;;;;5005175;28;19952;-67
2024/01/20 08:27:10;;;;;;;;;;;1.70;99.90;;;;;;5002917;28;20359;-67
2024/01/20 08:29:38;;;;;;;;;;;1.70;99.90;;;;;;5002020;28;19913;-67
2024/01/20 08:32:04;;;;;;;;;;;1.70;99.90;;;;;;5004873;28;20299;-67
2024/01/20 08:34:29;;;;;;;;;;;1.80;99.90;;;;;;5003659;28;19921;-67
2024/01/20 08:36:55;;;;;;;;;;;1.80;99.90;;;;;;5004939;28;19913;-67
2024/01/20 08:39:20;;;;;;;;;;;1.80;99.90;;;;;;5003974;28;19909;-67
2024/01/20 08:41:46;;;;;;;;;;;1.90;99.90;;;;;;5004326;28;20681;-67
2024/01/20 08:44:12;;;;;;;;;;;1.90;99.90;;;;;;5007841;28;19979;-67
2024/01/20 08:46:40;;;;;;;;;;;1.90;99.90;;;;;;5012693;28;19957;-67
2024/01/20 08:49:08;;;;;;;;;;;2.00;99.90;;;;;;5002070;28;19949;-67
2024/01/20 08:51:33;;;;;;;;;;;2.00;99.90;;;;;;5000194;28;20008;-67
2024/01/20 08:53:59;;;;;;;;;;;2.00;99.90;;;;;;5009350;28;20008;-67
2024/01/20 08:56:26;;;;;;;;;;;2.10;99.90;;;;;;5022317;28;19917;-67
2024/01/20 08:58:55;;;;;;;;;;;2.10;99.90;;;;;;5004487;28;19996;-67
2024/01/20 09:01:20;;;;;;;;;;;2.20;99.90;;;;;;5004450;28;19921;-67
2024/01/20 09:03:48;;;;;;;;;;;2.30;99.90;;;;;;5004283;28;19928;-67
2024/01/20 09:06:15;;;;;;;;;;;2.30;99.90;;;;;;5003908;28;19914;-67
2024/01/20 09:08:40;;;;;;;;;;;2.30;99.90;;;;;;5004859;28;19913;-67
2024/01/20 09:11:08;;;;;;;;;;;2.40;99.90;;;;;;5003441;28;20354;-67
2024/01/20 09:13:33;;;;;;;;;;;2.40;99.90;;;;;;5000949;28;19976;-67
2024/01/20 09:15:59;;;;;;;;;;;2.50;99.90;;;;;;5005485;28;19917;-67
2024/01/20 09:18:25;;;;;;;;;;;2.50;99.90;;;;;;5002996;28;19926;-67
2024/01/20 09:20:50;;;;;;;;;;;2.60;99.90;;;;;;5000991;28;19910;-68
2024/01/20 09:23:16;;;;;;;;;;;2.60;99.90;;;;;;5005637;28;19920;-67
2024/01/20 09:25:41;;;;;;;;;;;2.70;99.90;;;;;;5004682;28;20403;-67
2024/01/20 09:28:09;;;;;;;;;;;2.70;99.90;;;;;;5004523;28;20000;-67
2024/01/20 09:30:35;;;;;;;;;;;2.70;99.90;;;;;;5003727;28;19921;-68
2024/01/20 09:33:02;;;;;;;;;;;2.80;99.90;;;;;;5003844;28;19909;-67
2024/01/20 09:35:27;;;;;;;;;;;2.90;99.90;;;;;;5001101;28;20013;-67
2024/01/20 09:37:55;;;;;;;;;;;2.90;99.90;;;;;;5000554;28;20330;-67
2024/01/20 09:40:20;;;;;;;;;;;2.90;99.90;;;;;;5004642;28;20356;-67
2024/01/20 09:42:47;;;;;;;;;;;3.00;99.90;;;;;;5004368;28;20085;-67
2024/01/20 09:45:12;;;;;;;;;;;3.00;99.90;;;;;;5003648;28;19909;-67
2024/01/20 09:47:38;;;;;;;;;;;3.00;99.90;;;;;;5002893;28;19925;-67
2024/01/20 09:50:04;;;;;;;;;;;3.10;99.90;;;;;;4998337;28;19917;-67
2024/01/20 09:52:31;;;;;;;;;;;3.10;99.90;;;;;;4998340;28;19917;-67
2024/01/20 09:55:03;;;;;;;;;;;3.10;99.90;;;;;;5003152;28;19940;-68
2024/01/20 09:57:31;;;;;;;;;;;3.20;99.90;;;;;;5003725;28;20494;-67
2024/01/20 10:00:00;;;;;;;;;;;3.20;99.90;;;;;;5005951;28;19910;-68
2024/01/20 10:02:26;;;;;;;;;;;3.20;99.90;;;;;;5023362;28;19917;-67
2024/01/20 10:04:51;;;;;;;;;;;3.20;99.90;;;;;;5010751;28;19913;-68
2024/01/20 10:07:27;;;;;;;;;;;3.30;99.90;;;;;;5001836;28;19944;-68
2024/01/20 10:09:55;;;;;;;;;;;3.30;99.90;;;;;;5001487;28;19967;-67
2024/01/20 10:12:23;;;;;;;;;;;3.40;99.90;;;;;;4998319;28;20355;-67
2024/01/20 10:14:49;;;;;;;;;;;3.50;99.90;;;;;;5000116;28;20491;-68
2024/01/20 10:17:14;;;;;;;;;;;3.50;99.90;;;;;;5002877;28;20235;-67
2024/01/20 10:19:42;;;;;;;;;;;3.60;99.90;;;;;;5005582;28;20368;-68
2024/01/20 10:22:08;;;;;;;;;;;3.70;99.90;;;;;;5006219;28;19917;-68
2024/01/20 10:24:34;;;;;;;;;;;3.90;99.90;;;;;;5008173;28;19979;-68
2024/01/20 10:27:00;;;;;;;;;;;4.10;99.90;;;;;;5026205;28;20277;-67
2024/01/20 10:29:25;;;;;;;;;;;4.30;99.90;;;;;;5006561;28;19952;-68
2024/01/20 10:31:54;;;;;;;21.75;9.98;;;4.50;99.90;;;;;;5004878;28;19949;-68
2024/01/20 10:34:24;;;;;;;25.63;8.93;;;4.70;99.90;;;;;;5006529;28;20054;-67
2024/01/20 10:36:56;;;;;;;22.83;9.40;;;4.70;99.90;;;;;;5006132;28;20050;-68
2024/01/20 10:39:24;;;;;;;22.90;9.68;;;4.80;99.90;;;;;;5002305;28;20020;-68
2024/01/20 10:41:56;;;;;;;22.80;10.18;;;4.80;99.90;;;;;;5021630;28;20021;-68
2024/01/20 10:44:27;;;;;;;22.42;10.05;;;4.90;99.90;;;;;;5001857;28;20539;-68
2024/01/20 10:46:56;;;;;;;24.83;10.25;;;5.00;99.90;;;;;;4998453;28;20092;-67
2024/01/20 10:49:22;;;;;;;26.27;10.32;;;5.10;99.90;;;;;;5000865;28;20042;-67
2024/01/20 10:51:48;;;;;;;22.98;10.07;;;5.20;99.90;;;;;;5005053;28;20045;-67
2024/01/20 10:54:14;;;;;;;28.63;10.30;;;5.20;99.90;;;;;;5006973;28;20061;-67
2024/01/20 10:56:43;;;;;;;26.73;10.02;;;5.40;99.90;;;;;;5004325;28;20027;-68
2024/01/20 10:59:17;;;;;;;25.15;9.32;;;5.60;99.90;;;;;;5002952;28;20065;-68
2024/01/20 11:01:45;;;;;;;24.35;8.57;;;5.70;99.90;;;;;;4997464;28;20065;-68
2024/01/20 11:04:23;;;;;;;25.83;9.13;;;5.80;99.90;;;;;;5005804;28;20041;-68
2024/01/20 11:06:50;;;;;;;27.70;9.40;;;6.00;99.90;;;;;;5001490;28;20045;-68
2024/01/20 11:09:21;;;;;;;24.65;8.70;;;6.00;99.90;;;;;;5006732;28;20065;-68
2024/01/20 11:12:01;;;;;;;18.58;8.80;;;6.20;99.90;;;;;;5004346;28;20642;-68
2024/01/20 11:14:33;;;;;;;22.52;9.05;;;6.40;99.90;;;;;;5005572;28;20038;-68
2024/01/20 11:17:12;;;;;;;25.70;9.95;;;6.40;99.90;;;;;;5019636;28;20448;-68
2024/01/20 11:19:38;;;;;;;23.20;9.55;;;6.60;99.90;;;;;;5011894;28;20034;-68
2024/01/20 11:22:26;;;;;;;30.02;9.35;;;6.50;99.90;;;;;;5004374;28;20161;-68
2024/01/20 11:24:52;;;;;;;;;;;6.70;99.90;;;;;;5004035;28;20034;-68
2024/01/20 11:27:20;;;;;;;24.85;9.27;;;6.60;99.90;;;;;;4995865;28;19999;-68
2024/01/20 11:29:52;;;;;;;20.33;8.07;;;6.60;99.90;;;;;;5001999;28;20435;-68
2024/01/20 11:32:21;;;;;;;21.08;8.93;;;6.70;99.60;;;;;;5004822;28;20026;-68
2024/01/20 11:34:52;;;;;;;18.30;8.52;;;6.60;99.90;;;;;;5005678;28;20046;-68
2024/01/20 11:37:19;;;;;;;20.05;8.73;;;6.70;99.90;;;;;;5010982;28;20041;-68
2024/01/20 11:39:44;;;;;;;22.83;8.82;;;6.60;99.80;;;;;;5022806;28;20026;-68
2024/01/20 11:42:12;;;;;;;17.20;9.40;;;6.40;99.20;;;;;;5021817;28;20095;-68
2024/01/20 11:44:38;;;;;;;18.65;8.27;;;6.40;99.80;;;;;;5024903;28;20037;-68
2024/01/20 11:47:03;;;;;;;16.85;8.48;;;6.40;99.90;;;;;;5021263;28;20045;-68
2024/01/20 11:49:38;;;;;;;25.00;9.50;;;6.40;99.80;;;;;;5009807;28;20038;-68
2024/01/20 11:52:04;;;;;;;21.02;7.75;;;6.30;99.10;;;;;;5004442;28;20061;-68
2024/01/20 11:54:34;;;;;;;20.08;7.85;;;6.00;99.40;;;;;;5006980;28;20751;-68
2024/01/20 11:57:04;;;;;;;24.35;9.32;;;6.00;99.70;;;;;;5006465;28;20053;-68
2024/01/20 11:59:32;;;;;;;19.67;8.15;;;5.90;99.70;;;;;;5014938;28;20033;-68
2024/01/20 12:01:57;;;;;;;;;;;5.80;99.80;;;;;;5038468;28;20566;-68
2024/01/20 12:04:26;;;;;;;17.55;7.97;;;5.70;99.80;;;;;;5006723;28;19913;-68
2024/01/20 12:06:52;;;;;;;23.70;8.57;;;5.80;99.80;;;;;;5002948;28;20392;-68
2024/01/20 12:09:22;;;;;;;17.92;7.45;;;5.80;99.90;;;;;;5003325;28;20053;-68
2024/01/20 12:11:47;;;;;;;;;;;5.90;99.90;;;;;;5007045;28;20101;-68
2024/01/20 12:14:15;;;;;;;;;;;6.00;99.90;;;;;;5025496;28;19917;-68
2024/01/20 12:16:43;;;;;;;;;;;6.10;99.70;;;;;;5029614;28;19916;-68
2024/01/20 12:19:11;;;;;;;;;;;6.30;99.90;;;;;;5019886;28;19920;-68
2024/01/20 12:21:39;;;;;;;;;;;6.50;99.50;;;;;;5024063;28;19967;-68
2024/01/20 12:24:08;;;;;;;;;;;6.70;99.20;;;;;;5021839;28;19920;-68
2024/01/20 12:26:33;;;;;;;;;;;6.70;98.80;;;;;;5006150;28;19909;-68
2024/01/20 12:28:59;;;;;;;;;;;6.70;98.90;;;;;;5004771;28;20267;-68
2024/01/20 12:31:27;;;;;;;;;;;6.60;98.60;;;;;;5006709;28;19964;-68
2024/01/20 12:33:52;;;;;;;;;;;6.50;98.60;;;;;;5006376;28;19917;-68
2024/01/20 12:36:18;;;;;;;;;;;6.60;98.80;;;;;;5006579;28;19913;-68
2024/01/20 12:38:43;;;;;;;;;;;6.60;98.60;;;;;;5006248;28;19905;-68
2024/01/20 12:41:09;;;;;;;;;;;6.40;98.20;;;;;;4994706;28;19936;-68
2024/01/20 12:43:40;;;;;;;;;;;6.30;98.50;;;;;;5006366;28;19960;-68
2024/01/20 12:46:05;;;;;;;;;;;6.10;98.30;;;;;;5013014;23;19939;-68
2024/01/20 12:48:33;;;;;;;;;;;5.90;98.70;;;;;;5018732;28;19917;-68
2024/01/20 12:51:00;;;;;;;;;;;5.80;98.90;;;;;;5026239;28;20441;-68
2024/01/20 12:53:26;;;;;;;;;;;5.80;98.90;;;;;;5025808;28;19923;-68
2024/01/20 12:55:53;;;;;;;;;;;5.60;99.00;;;;;;5025266;28;19913;-68
2024/01/20 12:58:21;;;;;;;;;;;5.60;99.40;;;;;;5024671;28;19913;-68
2024/01/20 13:00:49;;;;;;;;;;;5.60;99.30;;;;;;5026122;28;19928;-68
2024/01/20 13:03:14;;;;;;;;;;;5.70;99.50;;;;;;5025902;28;20274;-68
2024/01/20 13:05:41;;;;;;;;;;;5.90;99.60;;;;;;5026332;28;19913;-70
2024/01/20 13:08:06;;;;;;;;;;;6.10;99.10;;;;;;5002128;28;20012;-68
2024/01/20 13:10:34;;;;;;;;;;;6.30;99.10;;;;;;5016573;28;20600;-67
2024/01/20 13:13:02;;;;;;;;;;;6.40;99.00;;;;;;5026104;28;19921;-68
2024/01/20 13:15:28;;;;;;;;;;;6.60;99.00;;;;;;5024127;28;19917;-68
2024/01/20 13:17:53;;;;;;;;;;;6.80;98.80;;;;;;5026165;28;20011;-68
2024/01/20 13:20:19;;;;;;;;;;;6.90;98.60;;;;;;5022224;28;19924;-68
2024/01/20 13:22:45;;;;;;;;;;;6.90;98.40;;;;;;5025594;28;19917;-68
2024/01/20 13:25:13;;;;;;;;;;;7.10;98.20;;;;;;5025663;28;19913;-68
2024/01/20 13:27:39;;;;;;;;;;;7.00;97.90;;;;;;5023810;28;19963;-68
2024/01/20 13:30:05;;;;;;;;;;;6.90;97.50;;;;;;5025403;28;20401;-68
2024/01/20 13:32:33;;;;;;;;;;;6.70;97.60;;;;;;5025580;28;19912;-68
2024/01/20 13:34:59;;;;;;;;;;;6.70;97.80;;;;;;5022323;28;20478;-68
2024/01/20 13:37:24;;;;;;;;;;;6.60;98.00;;;;;;5025423;28;19962;-68
2024/01/20 13:39:52;;;;;;;;;;;6.60;98.30;;;;;;5019120;28;19928;-68
2024/01/20 13:42:18;;;;;;;;;;;6.60;98.20;;;;;;5013695;28;21294;-68
2024/01/20 13:44:43;;;;;;;;;;;6.60;98.30;;;;;;5025558;28;20046;-68
2024/01/20 13:47:09;;;;;;;;;;;6.40;98.10;;;;;;5025439;28;19917;-68
2024/01/20 13:49:37;;;;;;;;;;;6.30;98.40;;;;;;5025802;28;20394;-68
2024/01/20 13:52:02;;;;;;;;;;;6.30;98.40;;;;;;5026599;28;19913;-68
2024/01/20 13:54:28;;;;;;;;;;;6.20;98.30;;;;;;5029340;28;19924;-68
2024/01/20 13:56:53;;;;;;;;;;;6.20;98.70;;;;;;5030272;28;20298;-68
2024/01/20 13:59:19;;;;;;;;;;;6.40;98.80;;;;;;5028782;28;20645;-68
2024/01/20 14:01:47;;;;;;;;;;;6.70;98.40;;;;;;5029298;28;19917;-68
2024/01/20 14:04:13;;;;;;;;;;;7.00;98.60;;;;;;5029718;28;19928;-68
2024/01/20 14:06:41;;;;;;;;;;;7.20;98.10;;;;;;5029234;28;19921;-68
2024/01/20 14:09:09;;;;;;;;;;;7.50;98.10;;;;;;5028898;28;19909;-68
2024/01/20 14:11:35;;;;;;;;;;;7.80;97.80;;;;;;5029832;28;19913;-68
2024/01/20 14:14:03;;;;;;;;;;;8.00;97.10;;;;;;5029357;28;19917;-68